Jordan, New York
Current Conditions -  °F | °C
As of 9:54 AM on Friday 28 Nov 2014 (Local Time) from KSYR Reporting Station
Light Snow Light Snow  
Wind Chill: 13°   Ceiling: 2900
Heat Index: 26°   Visibility: 7mi
Dew Point: 19°   Wind: 17mph
Humidity: 75%   Direction: 260°W
Pressure: 30.21"   Gusts: NA
Location:  43.07°N, 76.47°W
Report Text: KSYR 281454Z 26015KT 7SM -SN FEW022 BKN029 BKN040 M03/M07 A3021 RMK AO2 SLP233 P0000 60005 T10331072 51017 $
Loading
Personal Weather Stations






























Interactive Weather Map New forecast layout! Learn more

10-Day Weather Forecast

Advertisements
Track Severe Weather on mobile